LFRD/DNR METAR and TAF weather

Enter ICAO airport designator
Station Type Date Time Source
LFRD METAR 2022/01/25 05:00 UTC NOAA

LFRD 250500Z AUTO 17005KT 0400 0350 R35L/0375N FZFG VV/// M01/M01 Q1032 TEMPO 0300 FZFG


Station Type Date Time Source
LFRD Decoded METAR 2022/01/25 05:00 UTC NOAA

Dinard, France (LFRD) 48-35N 002-04W 60M
Jan 25, 2022 - 12:00 AM EST / 2022.01.25 0500 UTC
Wind: from the S (170 degrees) at 6 MPH (5 KT):0
Visibility: less than 1 mile:0
Sky conditions: obscured
Weather: freezing fog
Temperature: 30 F (-1 C)
Windchill: 23 F (-5 C):1
Dew Point: 30 F (-1 C)
Relative Humidity: 100%
Pressure (altimeter): 30.47 in. Hg (1032 hPa)
ob: LFRD 250500Z AUTO 17005KT 0400 0350 R35L/0375N FZFG VV/// M01/M01 Q1032 TEMPO 0300 FZFG
cycle: 5

Station Type Date Time Source
LFRD TAF 2022/01/25 06:21 UTC NOAA

TAF LFRD 250500Z 2506/2606 VRB05KT 3000 BR OVC003
TEMPO 2506/2511 0500 FG VV/// PROB40
TEMPO 2506/2510 0300 FZFG VV///
BECMG 2511/2513 6000 NSW
TEMPO 2513/2518 BKN007
BECMG 2518/2520 3000 BR PROB30
TEMPO 2600/2606 0500 FG VV///

Example: see airport list